»·PEaware :: UAL4223 KSFO-KSAN

UAL4223 :: KSFO-KSAN

FLIGHT INFORMATION

Flight Status: Arrived
Operator:
United Airlines
More flights by this operator :: More flights under this callsign
Pilot: Ruben R. (12247)
Aircraft: AIRBUS A320
(A320)
More flights by this aircraft type
Origin: KSFO San Francisco Intl
United States
Destination: KSAN San Diego Intl-Lindbergh
United States
More flights between these airports :: More routes between these airports
Route: +OFFSH2 MCKEY LAX COMIX2
File this flight plan on PilotEdge
Remarks:
Altitude:
(Current/Filed)
37,000ft
Speed:
(Current/Filed)
450kts
Departed: 23-Jun-19 07:34 PM
Arrived: 23-Jun-19 08:43 PM
Distance/Time
Traveled:
387nm/1:09
Distance/Time
To Go:
Arrived

Flight Plot

Page will automatically refresh every two minutes.

Flight plan parsing failed; only flown route is shown


Map Options




Map Legend


Flown Route
Filed Route
Departure Airport
Arrival Airport
Navaid (VOR, NDB)
Fix

Horizontal Profiles

Position Reports

Time Latitude Longitude Heading Altitude Ground
Speed
23-Jun-19 18:52 37.618906 -122.383692 279 27ft 0kts
23-Jun-19 18:53 37.618906 -122.383692 279 27ft 0kts
23-Jun-19 18:54 37.618906 -122.383692 279 27ft 0kts
23-Jun-19 18:55 37.618906 -122.383692 279 27ft 0kts
23-Jun-19 18:56 37.618906 -122.383692 279 27ft 0kts
23-Jun-19 18:57 37.618906 -122.383692 279 27ft 0kts
23-Jun-19 18:58 37.618906 -122.383692 279 27ft 0kts
23-Jun-19 18:58 37.618906 -122.383692 279 27ft 0kts
23-Jun-19 19:00 37.618906 -122.383692 279 27ft 0kts
23-Jun-19 19:01 37.618906 -122.383692 279 27ft 0kts
23-Jun-19 19:02 37.618906 -122.383692 279 27ft 0kts
23-Jun-19 19:02 37.618906 -122.383692 279 27ft 0kts
23-Jun-19 19:04 37.618906 -122.383692 279 27ft 0kts
23-Jun-19 19:05 37.618906 -122.383692 279 27ft 0kts
23-Jun-19 19:05 37.618906 -122.383692 279 27ft 0kts
23-Jun-19 19:06 37.618906 -122.383692 279 27ft 0kts
23-Jun-19 19:08 37.618906 -122.383692 279 27ft 0kts
23-Jun-19 19:08 37.618906 -122.383692 279 27ft 0kts
23-Jun-19 19:09 37.618906 -122.383692 279 27ft 0kts
23-Jun-19 19:10 37.618906 -122.383692 279 27ft 0kts
23-Jun-19 19:11 37.618906 -122.383692 279 27ft 0kts
23-Jun-19 19:12 37.618906 -122.383692 279 27ft 0kts
23-Jun-19 19:13 37.618906 -122.383692 279 27ft 0kts
23-Jun-19 19:14 37.618906 -122.383692 279 27ft 0kts
23-Jun-19 19:15 37.618906 -122.383692 279 27ft 0kts
23-Jun-19 19:16 37.618906 -122.383692 279 27ft 0kts
23-Jun-19 19:17 37.618906 -122.383692 279 27ft 0kts
23-Jun-19 19:18 37.618906 -122.383692 279 27ft 0kts
23-Jun-19 19:19 37.618869 -122.383477 292 27ft 2kts
23-Jun-19 19:20 37.618402 -122.383297 27 27ft 2kts
23-Jun-19 19:21 37.618316 -122.383355 27 27ft 0kts
23-Jun-19 19:22 37.618316 -122.383355 27 27ft 0kts
23-Jun-19 19:23 37.618316 -122.383354 27 27ft 0kts
23-Jun-19 19:24 37.618316 -122.383354 27 27ft 0kts
23-Jun-19 19:25 37.618488 -122.383241 27 27ft 3kts
23-Jun-19 19:26 37.619133 -122.382813 27 27ft 0kts
23-Jun-19 19:27 37.619453 -122.381557 120 27ft 9kts
23-Jun-19 19:28 37.615835 -122.380147 208 27ft 25kts
23-Jun-19 19:29 37.610526 -122.383672 208 27ft 12kts
23-Jun-19 19:30 37.609422 -122.383432 120 27ft 0kts
23-Jun-19 19:31 37.609418 -122.383423 120 27ft 0kts
23-Jun-19 19:32 37.609368 -122.381974 30 27ft 1kts
23-Jun-19 19:33 37.627208 -122.370142 22 258ft 148kts
23-Jun-19 19:34 37.668654 -122.364843 354 1861ft 176kts
23-Jun-19 19:35 37.717809 -122.385386 288 2874ft 226kts
23-Jun-19 19:36 37.680234 -122.450828 214 4834ft 270kts
23-Jun-19 19:37 37.618192 -122.508425 216 7252ft 284kts
23-Jun-19 19:38 37.553019 -122.568427 216 9488ft 296kts
23-Jun-19 19:39 37.482771 -122.633600 217 10679ft 341kts
23-Jun-19 19:40 37.393173 -122.695893 202 11351ft 393kts
23-Jun-19 19:41 37.290141 -122.748095 203 13024ft 404kts
23-Jun-19 19:42 37.184576 -122.801091 203 14675ft 414kts
23-Jun-19 19:43 37.071694 -122.830671 171 16220ft 428kts
23-Jun-19 19:44 36.961006 -122.771636 152 17690ft 439kts
23-Jun-19 19:45 36.851034 -122.701367 153 19105ft 448kts
23-Jun-19 19:46 36.738594 -122.630600 153 20398ft 457kts
23-Jun-19 19:47 36.624001 -122.558611 154 21634ft 466kts
23-Jun-19 19:48 36.507377 -122.485537 154 22779ft 473kts
23-Jun-19 19:49 36.396440 -122.397308 131 23815ft 482kts
23-Jun-19 19:50 36.310706 -122.268114 130 24818ft 489kts
23-Jun-19 19:51 36.221047 -122.139459 130 25748ft 495kts
23-Jun-19 19:52 36.131730 -122.009277 131 26814ft 495kts
23-Jun-19 19:53 36.042352 -121.880318 131 27914ft 494kts
23-Jun-19 19:54 35.952877 -121.751587 131 28978ft 493kts
23-Jun-19 19:55 35.863189 -121.623024 132 29986ft 492kts
23-Jun-19 19:56 35.773989 -121.495645 132 30998ft 491kts
23-Jun-19 19:57 35.684814 -121.368735 132 31874ft 491kts
23-Jun-19 19:58 35.595539 -121.242196 132 32763ft 489kts
23-Jun-19 19:59 35.506107 -121.115934 133 33548ft 488kts
23-Jun-19 20:00 35.425529 -120.981978 125 34271ft 489kts
23-Jun-19 20:01 35.348360 -120.845044 127 34928ft 488kts
23-Jun-19 20:02 35.270810 -120.708404 126 35492ft 488kts
23-Jun-19 20:03 35.193083 -120.572231 126 35982ft 487kts
23-Jun-19 20:04 35.115345 -120.436330 127 36330ft 488kts
23-Jun-19 20:05 35.037364 -120.300589 127 36635ft 489kts
23-Jun-19 20:06 34.959090 -120.164935 127 36950ft 488kts
23-Jun-19 20:07 34.880649 -120.029407 127 37027ft 490kts
23-Jun-19 20:08 34.801957 -119.894050 127 37027ft 491kts
23-Jun-19 20:09 34.722496 -119.757805 127 37057ft 493kts
23-Jun-19 20:10 34.643467 -119.622880 127 37056ft 489kts
23-Jun-19 20:11 34.564440 -119.488436 127 36979ft 488kts
23-Jun-19 20:12 34.484991 -119.353889 128 37036ft 493kts
23-Jun-19 20:13 34.404981 -119.218740 128 37068ft 493kts
23-Jun-19 20:14 34.325368 -119.084829 128 37035ft 487kts
23-Jun-19 20:15 34.246372 -118.952484 128 36957ft 485kts
23-Jun-19 20:16 34.166678 -118.819455 128 36965ft 492kts
23-Jun-19 20:17 34.086025 -118.685265 128 37039ft 495kts
23-Jun-19 20:18 34.007310 -118.554833 128 37048ft 489kts
23-Jun-19 20:19 33.926789 -118.424127 133 35354ft 485kts
23-Jun-19 20:20 33.834061 -118.304292 135 32715ft 490kts
23-Jun-19 20:21 33.741283 -118.183741 134 29991ft 493kts
23-Jun-19 20:22 33.648212 -118.061169 133 27014ft 498kts
23-Jun-19 20:23 33.554537 -117.938858 134 23800ft 498kts
23-Jun-19 20:24 33.459370 -117.827918 136 20864ft 483kts
23-Jun-19 20:25 33.361969 -117.721959 138 17933ft 463kts
23-Jun-19 20:26 33.267787 -117.621585 138 15277ft 439kts
23-Jun-19 20:27 33.183979 -117.533032 138 14277ft 366kts
23-Jun-19 20:28 33.111938 -117.462073 145 13430ft 311kts
23-Jun-19 20:29 33.043220 -117.405504 145 12424ft 291kts
23-Jun-19 20:30 32.977632 -117.350306 145 11121ft 286kts
23-Jun-19 20:31 32.913022 -117.296244 145 9834ft 281kts
23-Jun-19 20:32 32.849425 -117.243391 145 8574ft 276kts
23-Jun-19 20:33 32.802432 -117.176860 101 7289ft 271kts
23-Jun-19 20:34 32.784715 -117.091375 105 6341ft 254kts
23-Jun-19 20:35 32.765228 -117.008768 107 5200ft 266kts
23-Jun-19 20:36 32.724328 -116.945097 183 4516ft 253kts
23-Jun-19 20:37 32.687296 -116.996941 271 3962ft 200kts
23-Jun-19 20:38 32.699943 -117.051426 285 3186ft 150kts
23-Jun-19 20:39 32.711184 -117.097350 286 1638ft 145kts
23-Jun-19 20:40 32.722132 -117.142548 286 870ft 141kts
23-Jun-19 20:41 32.732855 -117.186725 284 29ft 125kts
23-Jun-19 20:42 32.734864 -117.198982 261 29ft 8kts
23-Jun-19 20:43 32.735471 -117.201814 286 29ft 6kts
23-Jun-19 20:44 32.735886 -117.203865 239 29ft 0kts
23-Jun-19 20:45 32.734983 -117.204253 178 29ft 3kts
23-Jun-19 20:46 32.734709 -117.204239 177 29ft 0kts

Navigation Log

Ident Type
Flight plan parsing failed, navigation log unavailable